createdAt,value
2019-02-25T00:00:21.343Z,10.98
2019-02-25T00:02:49.908Z,9.38
2019-02-25T00:05:18.504Z,7.50
2019-02-25T00:07:47.074Z,6.62
2019-02-25T00:10:15.654Z,5.55
2019-02-25T00:12:44.218Z,5.78
2019-02-25T00:15:12.808Z,5.92
2019-02-25T00:17:41.447Z,5.80
2019-02-25T00:20:11.181Z,5.10
2019-02-25T00:22:39.751Z,5.10
2019-02-25T00:25:11.259Z,5.25
2019-02-25T00:27:39.821Z,4.95
2019-02-25T00:30:13.263Z,5.03
2019-02-25T00:32:41.826Z,5.20
2019-02-25T00:35:10.391Z,5.10
2019-02-25T00:37:38.982Z,5.10
2019-02-25T00:40:09.590Z,4.80
2019-02-25T00:42:38.180Z,5.25
2019-02-25T00:45:09.560Z,5.70
2019-02-25T00:47:38.142Z,5.42
2019-02-25T00:50:09.794Z,4.80
2019-02-25T00:52:38.375Z,5.17
2019-02-25T00:55:08.068Z,4.25
2019-02-25T00:57:36.659Z,4.90
2019-02-25T01:00:08.634Z,5.65
2019-02-25T01:02:37.290Z,4.28
2019-02-25T01:05:06.604Z,4.42
2019-02-25T01:07:35.257Z,4.80
2019-02-25T01:10:05.958Z,5.50
2019-02-25T01:12:34.543Z,4.87
2019-02-25T01:15:03.107Z,5.50
2019-02-25T01:17:31.700Z,4.83
2019-02-25T01:20:00.353Z,5.37
2019-02-25T01:22:28.959Z,4.40
2019-02-25T01:24:57.519Z,4.05
2019-02-25T01:27:26.107Z,5.05
2019-02-25T01:29:54.671Z,4.50
2019-02-25T01:32:23.267Z,5.00
2019-02-25T01:34:51.827Z,3.58
2019-02-25T01:37:20.406Z,4.53
2019-02-25T01:39:48.980Z,5.08
2019-02-25T01:42:17.576Z,5.05
2019-02-25T01:44:46.135Z,5.47
2019-02-25T01:47:14.722Z,5.08
2019-02-25T01:49:43.284Z,4.53
2019-02-25T01:52:11.867Z,3.92
2019-02-25T01:54:40.435Z,3.70
2019-02-25T01:57:09.023Z,4.22
2019-02-25T01:59:37.585Z,4.22
2019-02-25T02:02:06.172Z,4.95
2019-02-25T02:04:34.735Z,3.90
2019-02-25T02:07:03.318Z,4.20
2019-02-25T02:09:31.878Z,3.70
2019-02-25T02:12:00.473Z,4.05
2019-02-25T02:14:29.038Z,3.95
2019-02-25T02:16:57.628Z,3.62
2019-02-25T02:19:26.197Z,3.25
2019-02-25T02:21:54.775Z,3.12
2019-02-25T02:24:23.343Z,3.55
2019-02-25T02:26:51.923Z,3.85
2019-02-25T02:29:20.491Z,5.00
2019-02-25T02:31:49.075Z,4.10
2019-02-25T02:34:17.639Z,4.67
2019-02-25T02:36:46.223Z,3.70
2019-02-25T02:39:14.790Z,5.05
2019-02-25T02:42:11.340Z,4.10
2019-02-25T02:44:40.547Z,3.70
2019-02-25T02:47:33.110Z,3.62
2019-02-25T02:50:02.915Z,3.50
2019-02-25T02:52:31.494Z,3.60
2019-02-25T02:55:00.094Z,3.90
2019-02-25T02:57:28.948Z,3.35
2019-02-25T02:59:57.527Z,4.97
2019-02-25T03:02:26.117Z,5.80
2019-02-25T03:04:54.680Z,5.22
2019-02-25T03:07:23.272Z,5.75
2019-02-25T03:09:51.845Z,4.97
2019-02-25T03:12:20.424Z,4.42
2019-02-25T03:14:48.991Z,4.10
2019-02-25T03:17:17.584Z,4.35
2019-02-25T03:19:46.143Z,4.42
2019-02-25T03:22:14.735Z,5.20
2019-02-25T03:24:43.308Z,3.10
2019-02-25T03:27:11.896Z,3.52
2019-02-25T03:29:40.454Z,3.25
2019-02-25T03:32:09.046Z,4.12
2019-02-25T03:34:37.605Z,3.83
2019-02-25T03:37:06.189Z,3.33
2019-02-25T03:39:34.763Z,3.30
2019-02-25T03:42:03.423Z,3.40
2019-02-25T03:44:31.979Z,3.30
2019-02-25T03:47:00.562Z,3.00
2019-02-25T03:49:29.134Z,2.95
2019-02-25T03:51:57.721Z,2.58
2019-02-25T03:54:26.283Z,3.10
2019-02-25T03:56:54.934Z,2.45
2019-02-25T03:59:23.501Z,3.22
2019-02-25T04:01:52.078Z,3.10
2019-02-25T04:04:20.715Z,2.35
2019-02-25T04:06:49.281Z,2.22
2019-02-25T04:09:17.940Z,2.52
2019-02-25T04:11:46.507Z,2.45
2019-02-25T04:14:15.094Z,3.12
2019-02-25T04:16:43.662Z,5.75
2019-02-25T04:19:12.251Z,6.45
2019-02-25T04:21:40.826Z,10.55
2019-02-25T04:24:09.420Z,9.93
2019-02-25T04:26:37.988Z,9.15
2019-02-25T04:29:06.587Z,8.88
2019-02-25T04:31:35.139Z,9.20
2019-02-25T04:34:03.737Z,8.85
2019-02-25T04:36:32.290Z,8.03
2019-02-25T04:39:00.882Z,6.95
2019-02-25T04:41:29.448Z,3.58
2019-02-25T04:43:58.039Z,4.25
2019-02-25T04:46:26.603Z,4.40
2019-02-25T04:48:55.200Z,5.15
2019-02-25T04:51:23.763Z,5.40
2019-02-25T04:53:52.355Z,6.00
2019-02-25T04:56:20.928Z,4.25
2019-02-25T04:58:49.520Z,4.20
2019-02-25T05:01:18.074Z,3.60
2019-02-25T05:03:46.659Z,3.50
2019-02-25T05:06:15.226Z,3.20
2019-02-25T05:08:43.806Z,3.40
2019-02-25T05:11:12.367Z,3.65
2019-02-25T05:13:40.955Z,3.10
2019-02-25T05:16:09.525Z,2.83
2019-02-25T05:18:38.108Z,2.20
2019-02-25T05:21:06.679Z,2.62
2019-02-25T05:23:35.270Z,2.45
2019-02-25T05:26:03.830Z,2.47
2019-02-25T05:28:32.420Z,2.52
2019-02-25T05:31:00.999Z,2.22
2019-02-25T05:33:29.566Z,2.80
2019-02-25T05:35:58.188Z,2.10
2019-02-25T05:38:26.763Z,3.10
2019-02-25T05:40:55.327Z,2.90
2019-02-25T05:43:23.911Z,2.35
2019-02-25T05:45:52.481Z,2.35
2019-02-25T05:48:21.058Z,2.25
2019-02-25T05:50:49.664Z,2.10
2019-02-25T05:53:18.219Z,6.70
2019-02-25T05:55:46.781Z,3.67
2019-02-25T05:58:15.358Z,4.47
2019-02-25T06:00:43.926Z,5.35
2019-02-25T06:03:12.515Z,5.28
2019-02-25T06:05:41.074Z,5.12
2019-02-25T06:08:09.666Z,4.60
2019-02-25T06:10:38.227Z,4.90
2019-02-25T06:13:06.884Z,2.70
2019-02-25T06:15:35.447Z,3.12
2019-02-25T06:18:04.016Z,2.60
2019-02-25T06:20:32.602Z,3.15
2019-02-25T06:23:01.167Z,3.35
2019-02-25T06:25:29.756Z,2.92
2019-02-25T06:27:58.312Z,2.67
2019-02-25T06:30:26.906Z,2.98
2019-02-25T06:32:55.470Z,1.92
2019-02-25T06:35:24.055Z,2.17
2019-02-25T06:37:52.617Z,1.70
2019-02-25T06:40:21.440Z,2.65
2019-02-25T06:42:50.071Z,2.10
2019-02-25T06:45:33.426Z,2.05
2019-02-25T06:48:01.989Z,2.72
2019-02-25T06:50:30.578Z,2.47
2019-02-25T06:52:59.144Z,1.62
2019-02-25T06:55:27.722Z,3.92
2019-02-25T06:57:56.286Z,4.45
2019-02-25T07:00:25.061Z,4.00
2019-02-25T07:02:53.623Z,4.03
2019-02-25T07:05:39.187Z,2.60
2019-02-25T07:08:25.642Z,3.27
2019-02-25T07:10:55.875Z,2.72
2019-02-25T07:13:42.530Z,2.50
2019-02-25T07:16:12.759Z,2.20
2019-02-25T07:18:51.751Z,1.95
2019-02-25T07:21:24.450Z,1.57
2019-02-25T07:23:57.572Z,2.15
2019-02-25T07:26:30.494Z,2.70
2019-02-25T07:29:00.702Z,1.62
2019-02-25T07:31:33.663Z,1.82
2019-02-25T07:34:12.628Z,2.25
2019-02-25T07:36:59.114Z,2.75
2019-02-25T07:39:47.687Z,4.58
2019-02-25T07:42:27.098Z,3.85
2019-02-25T07:44:57.330Z,5.67
2019-02-25T07:47:43.831Z,6.37
2019-02-25T07:50:14.075Z,7.30
2019-02-25T07:52:44.287Z,6.72
2019-02-25T07:55:29.800Z,5.80
2019-02-25T07:58:00.018Z,4.85
2019-02-25T08:00:32.950Z,5.12
2019-02-25T08:03:19.351Z,8.48
2019-02-25T08:05:58.593Z,7.28
2019-02-25T08:08:40.731Z,6.35
2019-02-25T08:11:17.142Z,5.78
2019-02-25T08:13:49.967Z,5.60
2019-02-25T08:16:29.258Z,5.40
2019-02-25T08:19:05.270Z,6.30
2019-02-25T08:21:51.828Z,4.90
2019-02-25T08:24:30.642Z,5.35
2019-02-25T08:26:56.723Z,6.40
2019-02-25T08:29:43.055Z,6.22
2019-02-25T08:32:30.086Z,7.00
2019-02-25T08:35:04.009Z,6.65
2019-02-25T08:37:43.003Z,5.55
2019-02-25T08:40:34.203Z,4.47
2019-02-25T08:43:21.411Z,5.10
2019-02-25T08:45:57.163Z,4.40
2019-02-25T08:48:27.366Z,4.25
2019-02-25T08:50:56.299Z,5.60
2019-02-25T08:53:24.923Z,5.37
2019-02-25T08:55:53.519Z,6.20
2019-02-25T08:58:22.083Z,5.33
2019-02-25T09:00:50.666Z,5.05
2019-02-25T09:03:19.227Z,6.00
2019-02-25T09:05:47.815Z,5.22
2019-02-25T09:08:16.372Z,4.95
2019-02-25T09:10:44.951Z,4.10
2019-02-25T09:13:13.515Z,5.40
2019-02-25T09:15:42.099Z,5.40
2019-02-25T09:18:10.735Z,3.22
2019-02-25T09:20:39.314Z,3.00
2019-02-25T09:23:07.870Z,3.70
2019-02-25T09:25:36.450Z,3.90
2019-02-25T09:28:05.146Z,4.03
2019-02-25T09:30:33.731Z,3.70
2019-02-25T09:33:02.308Z,2.95
2019-02-25T09:35:30.893Z,3.37
2019-02-25T09:37:59.447Z,3.33
2019-02-25T09:40:28.007Z,2.90
2019-02-25T09:42:56.600Z,3.33
2019-02-25T09:45:25.159Z,3.42
2019-02-25T09:47:53.738Z,2.80
2019-02-25T09:50:23.039Z,2.92
2019-02-25T09:52:51.618Z,3.30
2019-02-25T09:55:20.179Z,3.37
2019-02-25T09:57:48.759Z,3.50
2019-02-25T10:00:19.032Z,3.45
2019-02-25T10:02:47.751Z,3.37
2019-02-25T10:05:16.311Z,4.50
2019-02-25T10:07:44.999Z,3.72
2019-02-25T10:10:15.466Z,4.70
2019-02-25T10:12:44.058Z,3.83
2019-02-25T10:15:17.895Z,4.15
2019-02-25T10:17:46.531Z,4.25
2019-02-25T10:20:15.090Z,4.08
2019-02-25T10:22:45.244Z,4.62
2019-02-25T10:25:13.808Z,4.22
2019-02-25T10:27:42.392Z,5.50
2019-02-25T10:30:18.108Z,4.55
2019-02-25T10:32:46.636Z,3.80
2019-02-25T10:35:18.507Z,5.05
2019-02-25T10:37:47.098Z,4.75
2019-02-25T10:40:17.771Z,4.67
2019-02-25T10:42:46.059Z,4.90
2019-02-25T10:45:17.534Z,4.28
2019-02-25T10:47:46.794Z,4.30
2019-02-25T10:50:16.391Z,4.97
2019-02-25T10:52:47.081Z,4.78
2019-02-25T10:55:44.997Z,3.77
2019-02-25T10:58:13.052Z,4.80
2019-02-25T11:00:42.156Z,4.08
2019-02-25T11:03:12.850Z,4.35
2019-02-25T11:05:42.052Z,4.25
2019-02-25T11:08:13.888Z,4.90
2019-02-25T11:10:46.182Z,4.58
2019-02-25T11:13:14.475Z,3.15
2019-02-25T11:15:44.592Z,4.40
2019-02-25T11:18:13.268Z,5.37
2019-02-25T11:20:41.824Z,4.40
2019-02-25T11:23:12.309Z,5.47
2019-02-25T11:25:40.683Z,4.08
2019-02-25T11:28:11.248Z,3.87
2019-02-25T11:30:39.643Z,4.30
2019-02-25T11:33:08.226Z,4.45
2019-02-25T11:35:38.812Z,4.20
2019-02-25T11:38:07.007Z,4.12
2019-02-25T11:40:36.576Z,4.05
2019-02-25T11:43:05.795Z,3.92
2019-02-25T11:45:36.252Z,3.95
2019-02-25T11:48:04.991Z,2.90
2019-02-25T11:50:33.556Z,4.97
2019-02-25T11:53:02.135Z,4.35
2019-02-25T11:55:30.700Z,4.00
2019-02-25T11:57:59.292Z,3.60
2019-02-25T12:00:29.291Z,3.25
2019-02-25T12:02:57.880Z,4.03
2019-02-25T12:05:26.441Z,3.77
2019-02-25T12:07:55.023Z,4.67
2019-02-25T12:10:23.579Z,3.02
2019-02-25T12:12:52.169Z,3.42
2019-02-25T12:15:24.491Z,4.05
2019-02-25T12:17:53.079Z,3.30
2019-02-25T12:20:21.647Z,3.20
2019-02-25T12:22:50.357Z,3.00
2019-02-25T12:25:24.054Z,2.92
2019-02-25T12:27:52.635Z,3.50
2019-02-25T12:30:26.456Z,2.87
2019-02-25T12:32:55.039Z,3.30
2019-02-25T12:35:23.668Z,2.80
2019-02-25T12:37:52.247Z,3.02
2019-02-25T12:40:21.049Z,3.92
2019-02-25T12:42:49.630Z,3.10
2019-02-25T12:45:18.196Z,3.67
2019-02-25T12:47:46.782Z,3.80
2019-02-25T12:50:16.488Z,3.60
2019-02-25T12:52:45.142Z,3.58
2019-02-25T12:55:18.324Z,3.55
2019-02-25T12:57:46.987Z,3.40
2019-02-25T13:00:24.980Z,3.35
2019-02-25T13:02:53.570Z,3.50
2019-02-25T13:05:23.942Z,3.75
2019-02-25T13:07:52.531Z,3.60
2019-02-25T13:10:21.268Z,5.28
2019-02-25T13:12:51.645Z,3.62
2019-02-25T13:15:21.203Z,3.60
2019-02-25T13:17:49.790Z,3.52
2019-02-25T13:20:18.362Z,3.60
2019-02-25T13:22:47.019Z,3.77
2019-02-25T13:25:29.473Z,3.47
2019-02-25T13:27:58.780Z,3.60
2019-02-25T13:30:28.080Z,2.90
2019-02-25T13:32:56.676Z,4.15
2019-02-25T13:35:26.771Z,3.92
2019-02-25T13:37:55.354Z,4.05
2019-02-25T13:40:23.987Z,4.28
2019-02-25T13:42:52.770Z,3.50
2019-02-25T13:45:22.174Z,4.30
2019-02-25T13:47:50.831Z,3.75
2019-02-25T13:50:19.665Z,3.65
2019-02-25T13:52:49.070Z,3.15
2019-02-25T13:55:22.028Z,3.50
2019-02-25T13:57:50.614Z,3.30
2019-02-25T14:00:38.978Z,3.17
2019-02-25T14:03:07.564Z,3.50
2019-02-25T14:05:38.508Z,3.17
2019-02-25T14:08:07.051Z,2.50
2019-02-25T14:10:35.614Z,3.05
2019-02-25T14:13:04.482Z,2.67
2019-02-25T14:15:33.047Z,2.20
2019-02-25T14:18:01.708Z,2.62
2019-02-25T14:20:30.280Z,2.87
2019-02-25T14:23:00.653Z,2.83
2019-02-25T14:25:30.123Z,2.98
2019-02-25T14:27:58.978Z,3.25
2019-02-25T14:30:32.726Z,2.72
2019-02-25T14:32:58.615Z,3.45
2019-02-25T14:35:28.681Z,2.67
2019-02-25T14:38:05.115Z,2.60
2019-02-25T14:40:32.127Z,2.65
2019-02-25T14:43:00.064Z,2.70
2019-02-25T14:45:31.731Z,2.30
2019-02-25T14:48:02.343Z,3.35
2019-02-25T14:50:30.416Z,2.30
2019-02-25T14:53:01.229Z,2.80
2019-02-25T14:55:29.290Z,2.37
2019-02-25T14:58:00.147Z,2.95
2019-02-25T15:00:31.373Z,2.75
2019-02-25T15:02:58.987Z,2.62
2019-02-25T15:05:27.843Z,2.45
2019-02-25T15:07:56.874Z,2.10
2019-02-25T15:10:29.054Z,2.42
2019-02-25T15:12:58.739Z,2.22
2019-02-25T15:15:26.317Z,2.60
2019-02-25T15:17:54.870Z,2.60
2019-02-25T15:20:24.103Z,2.60
2019-02-25T15:22:53.743Z,3.25
2019-02-25T15:25:22.402Z,2.95
2019-02-25T15:27:51.032Z,2.95
2019-02-25T15:30:27.692Z,3.00
2019-02-25T15:32:58.409Z,3.10
2019-02-25T15:35:29.155Z,3.27
2019-02-25T15:37:57.827Z,3.52
2019-02-25T15:40:27.214Z,3.20
2019-02-25T15:43:15.834Z,3.35
2019-02-25T15:45:44.195Z,3.60
2019-02-25T15:48:17.907Z,3.55
2019-02-25T15:50:50.698Z,4.15
2019-02-25T15:53:19.902Z,4.20
2019-02-25T15:55:48.540Z,4.90
2019-02-25T15:58:18.102Z,3.25
2019-02-25T16:00:47.387Z,4.25
2019-02-25T16:03:16.765Z,4.15
2019-02-25T16:05:46.187Z,4.55
2019-02-25T16:08:17.103Z,5.08
2019-02-25T16:10:46.945Z,3.42
2019-02-25T16:13:16.297Z,3.35
2019-02-25T16:15:45.163Z,4.00
2019-02-25T16:18:14.124Z,4.17
2019-02-25T16:20:45.941Z,4.17
2019-02-25T16:23:13.356Z,3.30
2019-02-25T16:25:42.293Z,5.05
2019-02-25T16:28:12.549Z,3.95
2019-02-25T16:30:42.437Z,5.08
2019-02-25T16:33:13.650Z,4.10
2019-02-25T16:35:43.043Z,4.17
2019-02-25T16:38:11.852Z,5.05
2019-02-25T16:40:40.430Z,3.90
2019-02-25T16:43:10.482Z,3.42
2019-02-25T16:45:40.146Z,3.75
2019-02-25T16:48:09.634Z,3.58
2019-02-25T16:50:39.811Z,3.90
2019-02-25T16:53:10.280Z,3.70
2019-02-25T16:55:40.506Z,4.22
2019-02-25T16:58:12.461Z,4.70
2019-02-25T17:00:41.179Z,5.15
2019-02-25T17:03:11.181Z,4.50
2019-02-25T17:05:40.329Z,4.60
2019-02-25T17:08:12.615Z,4.70
2019-02-25T17:10:41.295Z,13.68
2019-02-25T17:13:10.888Z,4.10
2019-02-25T17:15:40.179Z,4.17
2019-02-25T17:18:09.170Z,4.05
2019-02-25T17:20:37.813Z,10.03
2019-02-25T17:23:09.497Z,18.15
2019-02-25T17:25:38.951Z,14.00
2019-02-25T17:28:10.660Z,4.70
2019-02-25T17:30:38.565Z,4.42
2019-02-25T17:33:10.047Z,4.10
2019-02-25T17:35:39.507Z,5.55
2019-02-25T17:38:08.140Z,4.55
2019-02-25T17:40:36.722Z,4.87
2019-02-25T17:43:05.568Z,5.15
2019-02-25T17:45:36.306Z,4.40
2019-02-25T17:48:08.149Z,4.42
2019-02-25T17:50:37.022Z,3.75
2019-02-25T17:53:07.203Z,3.75
2019-02-25T17:55:36.342Z,5.30
2019-02-25T17:58:05.382Z,3.87
2019-02-25T18:00:37.381Z,4.85
2019-02-25T18:03:06.987Z,4.33
2019-02-25T18:05:36.417Z,4.40
2019-02-25T18:08:08.134Z,5.05
2019-02-25T18:10:37.178Z,6.17
2019-02-25T18:13:08.062Z,10.48
2019-02-25T18:15:36.043Z,6.50
2019-02-25T18:18:07.119Z,5.67
2019-02-25T18:20:36.615Z,5.03
2019-02-25T18:23:05.521Z,7.00
2019-02-25T18:25:34.223Z,6.65
2019-02-25T18:28:04.467Z,6.58
2019-02-25T18:30:33.469Z,6.35
2019-02-25T18:33:05.026Z,7.40
2019-02-25T18:35:35.751Z,8.58
2019-02-25T18:38:04.776Z,6.53
2019-02-25T18:40:33.932Z,5.42
2019-02-25T18:43:04.458Z,5.65
2019-02-25T18:45:35.502Z,6.40
2019-02-25T18:48:04.047Z,6.12
2019-02-25T18:50:33.569Z,6.70
2019-02-25T18:53:02.131Z,7.42
2019-02-25T18:55:32.092Z,8.85
2019-02-25T18:58:01.384Z,8.08
2019-02-25T19:00:34.115Z,7.30
2019-02-25T19:03:04.658Z,7.58
2019-02-25T19:05:33.048Z,6.30
2019-02-25T19:08:02.370Z,7.22
2019-02-25T19:10:30.957Z,7.47
2019-02-25T19:13:01.005Z,7.42
2019-02-25T19:15:29.754Z,6.75
2019-02-25T19:17:58.319Z,9.28
2019-02-25T19:20:27.643Z,9.13
2019-02-25T19:23:00.424Z,8.90
2019-02-25T19:25:26.754Z,9.25
2019-02-25T19:27:56.687Z,8.83
2019-02-25T19:30:27.877Z,8.48
2019-02-25T19:32:55.918Z,8.65
2019-02-25T19:35:26.295Z,7.80
2019-02-25T19:37:54.706Z,9.05
2019-02-25T19:40:24.584Z,9.58
2019-02-25T19:42:54.246Z,8.93
2019-02-25T19:45:23.734Z,9.30
2019-02-25T19:47:52.411Z,11.12
2019-02-25T19:50:22.698Z,11.15
2019-02-25T19:52:51.266Z,10.48
2019-02-25T19:55:20.983Z,9.75
2019-02-25T19:57:50.211Z,9.73
2019-02-25T20:00:27.715Z,8.70
2019-02-25T20:03:05.643Z,8.15
2019-02-25T20:05:33.168Z,8.90
2019-02-25T20:08:01.472Z,9.50
2019-02-25T20:10:30.775Z,8.50
2019-02-25T20:12:59.391Z,9.30
2019-02-25T20:15:27.978Z,8.55
2019-02-25T20:17:56.551Z,10.53
2019-02-25T20:20:26.764Z,9.65
2019-02-25T20:22:57.246Z,9.93
2019-02-25T20:25:26.574Z,9.30
2019-02-25T20:27:57.586Z,11.33
2019-02-25T20:30:28.299Z,10.90
2019-02-25T20:32:56.319Z,11.65
2019-02-25T20:35:26.779Z,16.55
2019-02-25T20:37:55.692Z,10.50
2019-02-25T20:40:26.671Z,9.38
2019-02-25T20:42:56.124Z,8.95
2019-02-25T20:45:33.204Z,9.38
2019-02-25T20:48:02.085Z,8.90
2019-02-25T20:50:30.724Z,12.93
2019-02-25T20:53:04.932Z,13.35
2019-02-25T20:55:31.474Z,10.75
2019-02-25T20:57:59.879Z,11.48
2019-02-25T21:00:28.442Z,10.00
2019-02-25T21:02:57.032Z,9.58
2019-02-25T21:05:27.324Z,8.90
2019-02-25T21:07:57.957Z,10.70
2019-02-25T21:10:29.286Z,13.70
2019-02-25T21:12:57.174Z,11.03
2019-02-25T21:15:26.548Z,10.85
2019-02-25T21:17:57.051Z,10.25
2019-02-25T21:20:26.026Z,11.28
2019-02-25T21:22:57.853Z,12.03
2019-02-25T21:25:26.976Z,10.50
2019-02-25T21:27:59.265Z,10.95
2019-02-25T21:30:26.269Z,9.88
2019-02-25T21:32:57.204Z,9.50
2019-02-25T21:35:27.640Z,10.05
2019-02-25T21:37:55.332Z,10.35
2019-02-25T21:40:27.112Z,10.10
2019-02-25T21:42:56.623Z,8.90
2019-02-25T21:45:27.521Z,10.68
2019-02-25T21:47:56.552Z,10.15
2019-02-25T21:50:28.426Z,10.05
2019-02-25T21:52:55.979Z,10.80
2019-02-25T21:55:26.221Z,14.10
2019-02-25T21:57:55.478Z,12.88
2019-02-25T22:00:27.148Z,9.70
2019-02-25T22:02:56.489Z,9.60
2019-02-25T22:05:25.039Z,9.35
2019-02-25T22:07:55.340Z,8.58
2019-02-25T22:10:23.842Z,9.05
2019-02-25T22:12:52.433Z,10.90
2019-02-25T22:15:22.415Z,11.93
2019-02-25T22:17:53.228Z,12.30
2019-02-25T22:20:22.569Z,16.77
2019-02-25T22:22:54.634Z,20.17
2019-02-25T22:25:23.067Z,16.00
2019-02-25T22:27:51.650Z,18.70
2019-02-25T22:30:20.287Z,16.50
2019-02-25T22:32:48.880Z,11.80
2019-02-25T22:35:17.442Z,10.58
2019-02-25T22:37:49.273Z,11.33
2019-02-25T22:40:19.336Z,10.15
2019-02-25T22:42:50.465Z,13.85
2019-02-25T22:47:48.396Z,11.25
2019-02-25T22:50:16.958Z,13.28
2019-02-25T22:52:45.615Z,12.88
2019-02-25T22:55:15.286Z,13.25
2019-02-25T22:57:46.190Z,9.25
2019-02-25T23:00:46.663Z,9.78
2019-02-25T23:03:17.667Z,9.05
2019-02-25T23:05:47.779Z,10.03
2019-02-25T23:08:17.939Z,10.30
2019-02-25T23:10:46.955Z,10.60
2019-02-25T23:13:17.743Z,10.72
2019-02-25T23:15:47.216Z,10.65
2019-02-25T23:18:17.402Z,11.22
2019-02-25T23:20:46.824Z,11.25
2019-02-25T23:23:15.411Z,9.98
2019-02-25T23:25:46.821Z,9.60
2019-02-25T23:28:14.232Z,9.20
2019-02-25T23:30:42.787Z,9.20
2019-02-25T23:33:12.027Z,10.40
2019-02-25T23:35:44.676Z,10.55
2019-02-25T23:38:11.830Z,9.55
2019-02-25T23:40:42.772Z,11.60
2019-02-25T23:43:12.117Z,9.88
2019-02-25T23:45:42.114Z,9.85
2019-02-25T23:48:11.731Z,9.70
2019-02-25T23:50:40.462Z,9.10
2019-02-25T23:53:09.080Z,10.35
2019-02-25T23:55:37.650Z,9.38
2019-02-25T23:58:10.223Z,9.10
